Time;durP1;ratioP1;P1;durP2;ratioP2;P2;SDS_P1;SDS_P2;PMS_P1;PMS_P2;Temp;Humidity;BMP_temperature;BMP_pressure;BME280_temperature;BME280_humidity;BME280_pressure;Samples;Min_cycle;Max_cycle;Signal;HPM_P1;HPM_P2
2022/09/05 00:02:32;;;;;;;2.83;0.85;;;16.70;99.90;;;;;;5036525;28;20204;-90
2022/09/05 00:05:33;;;;;;;4.10;1.00;;;16.70;99.90;;;;;;5029962;28;20201;-92
2022/09/05 00:08:14;;;;;;;4.82;1.20;;;16.90;99.90;;;;;;5022261;28;20224;-89
2022/09/05 00:10:52;;;;;;;3.80;0.85;;;16.90;99.90;;;;;;5036140;28;20189;-91
2022/09/05 00:13:29;;;;;;;4.40;1.00;;;16.90;99.90;;;;;;5040104;28;20271;-93
2022/09/05 00:16:32;;;;;;;6.63;1.20;;;17.00;99.90;;;;;;5048878;28;20339;-91
2022/09/05 00:19:14;;;;;;;3.08;0.73;;;17.10;99.90;;;;;;5066006;28;20272;-90
2022/09/05 00:22:01;;;;;;;2.38;0.70;;;17.10;99.90;;;;;;5046803;28;20207;-91
2022/09/05 00:24:47;;;;;;;2.78;0.90;;;17.10;99.90;;;;;;5033055;28;20282;-91
2022/09/05 00:27:26;;;;;;;2.50;0.80;;;17.20;99.90;;;;;;5028981;28;20229;-90
2022/09/05 00:30:12;;;;;;;5.57;1.02;;;17.30;99.90;;;;;;5028005;28;20196;-89
2022/09/05 00:33:18;;;;;;;5.35;0.90;;;17.40;99.90;;;;;;5029385;28;21160;-88
2022/09/05 00:36:03;;;;;;;3.85;0.95;;;17.60;99.90;;;;;;5031239;28;20209;-88
2022/09/05 00:38:35;;;;;;;2.80;0.80;;;17.70;99.90;;;;;;5031433;28;21863;-86
2022/09/05 00:41:11;;;;;;;2.42;0.73;;;17.70;99.90;;;;;;5043253;28;20208;-89
2022/09/05 00:43:44;;;;;;;2.95;1.10;;;17.90;99.90;;;;;;5038956;28;20206;-85
2022/09/05 00:46:18;;;;;;;3.20;0.70;;;17.80;99.90;;;;;;5039132;28;20193;-88
2022/09/05 00:48:56;;;;;;;2.47;0.65;;;17.60;99.90;;;;;;5031526;28;20627;-86
2022/09/05 00:51:37;;;;;;;3.58;0.80;;;17.40;99.90;;;;;;5043623;28;20216;-86
2022/09/05 00:54:34;;;;;;;3.85;0.70;;;17.40;99.90;;;;;;5033200;28;20205;-86
2022/09/05 00:57:22;;;;;;;2.33;0.82;;;17.50;99.90;;;;;;5032518;28;20298;-86
2022/09/05 01:00:12;;;;;;;2.17;0.80;;;17.70;99.90;;;;;;5031602;28;20200;-86
2022/09/05 01:03:20;;;;;;;4.10;0.80;;;17.80;99.90;;;;;;5050720;28;20201;-86
2022/09/05 01:06:06;;;;;;;2.72;0.93;;;17.80;99.90;;;;;;5028029;28;20197;-87
2022/09/05 01:09:03;;;;;;;2.83;0.80;;;17.70;99.90;;;;;;5048159;28;20208;-87
2022/09/05 01:11:44;;;;;;;4.97;0.82;;;17.70;99.90;;;;;;5031947;28;20285;-86
2022/09/05 01:14:44;;;;;;;4.68;0.85;;;17.80;99.90;;;;;;5032026;28;20544;-88
2022/09/05 01:17:35;;;;;;;2.65;0.88;;;17.70;99.90;;;;;;5032086;28;20197;-88
2022/09/05 01:20:37;;;;;;;2.67;0.60;;;17.60;99.90;;;;;;5033944;28;20193;-87
2022/09/05 01:23:43;;;;;;;1.67;0.63;;;17.60;99.90;;;;;;5030997;28;20219;-87
2022/09/05 01:26:32;;;;;;;1.85;0.68;;;17.60;99.90;;;;;;5039198;28;20215;-86
2022/09/05 01:29:11;;;;;;;1.70;0.65;;;17.70;99.90;;;;;;5034554;28;20198;-88
2022/09/05 01:31:53;;;;;;;2.20;0.75;;;17.90;99.90;;;;;;5043885;28;20214;-87
2022/09/05 01:34:32;;;;;;;1.95;0.50;;;18.00;99.90;;;;;;5051902;28;20555;-87
2022/09/05 01:37:10;;;;;;;0.40;0.30;;;18.10;99.90;;;;;;5047159;28;20203;-84
2022/09/05 01:39:50;;;;;;;1.38;0.60;;;18.10;99.90;;;;;;5049771;28;20239;-85
2022/09/05 01:42:36;;;;;;;2.40;0.82;;;18.20;99.90;;;;;;5032832;28;20511;-81
2022/09/05 01:45:17;;;;;;;1.63;0.70;;;18.20;99.90;;;;;;5040466;28;20240;-85
2022/09/05 01:47:57;;;;;;;4.57;0.70;;;18.30;99.90;;;;;;5032694;28;20218;-87
2022/09/05 01:50:42;;;;;;;1.77;0.80;;;18.50;99.90;;;;;;5031847;28;20233;-85
2022/09/05 01:53:27;;;;;;;2.80;0.80;;;18.60;99.90;;;;;;5033713;28;20223;-87
2022/09/05 01:56:22;;;;;;;2.55;0.70;;;18.80;99.90;;;;;;5051806;28;20216;-95
2022/09/05 01:59:09;;;;;;;3.55;0.77;;;18.80;99.90;;;;;;5036738;28;20664;-95
2022/09/05 02:01:57;;;;;;;2.60;0.77;;;19.00;99.90;;;;;;5036597;28;20223;-96
2022/09/05 02:04:59;;;;;;;3.15;0.80;;;18.90;99.90;;;;;;5037247;28;20211;-96
2022/09/05 02:07:43;;;;;;;2.60;0.80;;;18.90;99.90;;;;;;5044043;28;20556;-94
2022/09/05 02:10:42;;;;;;;6.00;1.30;;;19.00;99.90;;;;;;5054308;28;20287;-85
2022/09/05 02:13:30;;;;;;;6.82;1.10;;;19.10;99.90;;;;;;5043704;28;20221;-95
2022/09/05 02:16:10;;;;;;;2.70;0.75;;;19.10;99.90;;;;;;5040630;28;20280;-94
2022/09/05 02:18:57;;;;;;;2.10;0.80;;;19.20;99.90;;;;;;5038699;28;20186;-95
2022/09/05 02:21:49;;;;;;;3.10;1.08;;;19.30;99.90;;;;;;5041537;28;20244;-94
2022/09/05 02:24:24;;;;;;;2.10;0.80;;;19.40;99.90;;;;;;5044028;28;20292;-95
2022/09/05 02:27:23;;;;;;;3.95;0.90;;;19.50;99.90;;;;;;5051932;28;20272;-93
2022/09/05 02:30:04;;;;;;;2.90;0.80;;;19.30;99.90;;;;;;5055882;28;20714;-93
2022/09/05 02:32:46;;;;;;;2.33;0.85;;;19.20;99.90;;;;;;5071138;28;20238;-93
2022/09/05 02:35:27;;;;;;;4.10;0.90;;;19.20;99.90;;;;;;5072211;28;20240;-94
2022/09/05 02:38:06;;;;;;;3.40;0.68;;;19.30;99.90;;;;;;5065567;28;20286;-88
2022/09/05 02:40:45;;;;;;;2.28;0.70;;;19.40;99.90;;;;;;5052608;28;20233;-93
2022/09/05 02:43:27;;;;;;;3.10;0.88;;;19.50;99.90;;;;;;5046724;28;20216;-93
2022/09/05 02:46:06;;;;;;;2.80;0.90;;;19.60;99.90;;;;;;5050045;28;20291;-89
2022/09/05 02:48:52;;;;;;;4.20;0.80;;;19.70;99.90;;;;;;5036516;28;20237;-90
2022/09/05 02:51:34;;;;;;;3.00;0.70;;;19.90;99.90;;;;;;5047908;28;20189;-90
2022/09/05 02:54:12;;;;;;;1.55;0.60;;;19.80;99.90;;;;;;5044297;28;20225;-91
2022/09/05 02:57:02;;;;;;;3.00;0.68;;;19.70;99.90;;;;;;5037771;28;20205;-93
2022/09/05 02:59:51;;;;;;;1.95;0.60;;;19.60;99.90;;;;;;5058163;28;20228;-92
2022/09/05 03:02:31;;;;;;;1.95;0.60;;;19.40;99.90;;;;;;5055551;28;20208;-90
2022/09/05 03:05:13;;;;;;;1.13;0.63;;;19.40;99.90;;;;;;5059523;28;20224;-93
2022/09/05 03:08:09;;;;;;;3.38;0.70;;;19.30;99.90;;;;;;5056266;28;20730;-89
2022/09/05 03:11:22;;;;;;;5.20;1.10;;;19.30;99.90;;;;;;5042547;28;20213;-94
2022/09/05 03:14:40;;;;;;;2.95;0.80;;;19.20;99.90;;;;;;5043936;28;20225;-93
2022/09/05 03:17:43;;;;;;;1.88;0.65;;;19.40;99.90;;;;;;5041266;28;20207;-92
2022/09/05 03:20:45;;;;;;;2.85;0.80;;;19.60;99.90;;;;;;5037243;28;20571;-91
2022/09/05 03:24:04;;;;;;;1.35;0.70;;;19.60;99.90;;;;;;5045564;28;20203;-94
2022/09/05 03:27:18;;;;;;;1.92;0.70;;;19.50;99.90;;;;;;5040421;28;20205;-94
2022/09/05 03:30:17;;;;;;;2.67;0.80;;;19.60;99.90;;;;;;5037952;28;20201;-93
2022/09/05 03:33:26;;;;;;;2.53;0.70;;;19.50;99.90;;;;;;5037600;28;20593;-89
2022/09/05 03:36:25;;;;;;;5.18;1.00;;;19.60;99.90;;;;;;5037418;28;20229;-92
2022/09/05 03:39:28;;;;;;;3.20;0.75;;;19.40;99.90;;;;;;5054800;28;20213;-92
2022/09/05 03:42:19;;;;;;;1.73;0.80;;;19.10;99.90;;;;;;5035334;28;20201;-90
2022/09/05 03:45:15;;;;;;;3.47;0.90;;;18.90;99.90;;;;;;5036251;28;20216;-90
2022/09/05 03:48:23;;;;;;;5.00;1.20;;;18.90;99.90;;;;;;5027138;28;20564;-93
2022/09/05 03:51:11;;;;;;;3.78;1.00;;;18.80;99.90;;;;;;5035957;28;20240;-94
2022/09/05 03:54:00;;;;;;;4.88;1.20;;;18.80;99.90;;;;;;5052490;28;20213;-88
2022/09/05 03:56:54;;;;;;;7.60;1.15;;;18.90;99.90;;;;;;5057758;28;20201;-86
2022/09/05 04:00:01;;;;;;;3.85;0.77;;;19.00;99.90;;;;;;5051860;28;20199;-89
2022/09/05 04:02:35;;;;;;;3.88;0.85;;;19.10;99.90;;;;;;5059245;28;20201;-93
2022/09/05 04:05:10;;;;;;;3.10;1.05;;;19.10;99.90;;;;;;5056401;28;20192;-89
2022/09/05 04:07:46;;;;;;;4.97;1.05;;;19.00;99.90;;;;;;5056146;28;20287;-90
2022/09/05 04:10:32;;;;;;;4.68;1.17;;;19.10;99.90;;;;;;5054933;28;20202;-90
2022/09/05 04:13:10;;;;;;;4.68;1.10;;;19.10;99.90;;;;;;5050915;28;20292;-89
2022/09/05 04:15:47;;;;;;;4.93;0.90;;;19.10;99.90;;;;;;5054588;28;20211;-93
2022/09/05 04:18:29;;;;;;;2.72;0.70;;;19.10;99.90;;;;;;5048068;28;20203;-90
2022/09/05 04:21:06;;;;;;;4.72;0.90;;;19.10;99.90;;;;;;5054473;28;20188;-92
2022/09/05 04:23:54;;;;;;;2.90;0.80;;;19.00;99.90;;;;;;5055342;28;20214;-94
2022/09/05 04:26:48;;;;;;;3.42;0.75;;;18.90;99.90;;;;;;5034574;28;20284;-89
2022/09/05 04:29:27;;;;;;;2.05;0.65;;;19.00;99.90;;;;;;5037330;28;20327;-93
2022/09/05 04:32:14;;;;;;;4.88;0.70;;;18.90;99.90;;;;;;5037658;28;20201;-90
2022/09/05 04:34:58;;;;;;;2.38;0.57;;;18.90;99.90;;;;;;5037003;28;20286;-92
2022/09/05 04:37:41;;;;;;;5.18;0.80;;;18.90;99.90;;;;;;5038057;28;20204;-91
2022/09/05 04:40:38;;;;;;;3.15;0.50;;;19.00;99.90;;;;;;5049546;28;20187;-89
2022/09/05 04:43:12;;;;;;;4.22;0.95;;;18.90;99.90;;;;;;5055575;28;20224;-87
2022/09/05 04:45:50;;;;;;;2.83;0.68;;;18.90;99.90;;;;;;5056922;28;20194;-87
2022/09/05 04:48:41;;;;;;;3.95;0.68;;;18.70;99.90;;;;;;5050747;28;20239;-87
2022/09/05 04:51:30;;;;;;;3.55;0.80;;;18.70;99.90;;;;;;5056664;28;20296;-89
2022/09/05 04:54:24;;;;;;;4.28;0.80;;;18.60;99.90;;;;;;5055082;28;20220;-90
2022/09/05 04:57:00;;;;;;;4.15;0.75;;;18.40;99.90;;;;;;5056024;28;20189;-87
2022/09/05 04:59:40;;;;;;;2.15;0.50;;;18.20;99.90;;;;;;5040273;28;20276;-89
2022/09/05 05:02:23;;;;;;;2.08;0.60;;;18.20;99.90;;;;;;5035324;28;20207;-88
2022/09/05 05:05:04;;;;;;;4.00;0.80;;;18.30;99.90;;;;;;5035065;28;20205;-92
2022/09/05 05:07:44;;;;;;;3.17;0.70;;;18.30;99.90;;;;;;5051523;28;20260;-91
2022/09/05 05:10:29;;;;;;;3.35;1.10;;;18.40;99.90;;;;;;5042279;28;20194;-90
2022/09/05 05:13:12;;;;;;;4.05;0.98;;;18.40;99.90;;;;;;5039752;28;20195;-89
2022/09/05 05:15:52;;;;;;;2.33;0.70;;;18.40;99.90;;;;;;5054484;28;20206;-91
2022/09/05 05:18:29;;;;;;;3.00;0.85;;;18.40;99.90;;;;;;5045822;28;20706;-90
2022/09/05 05:21:06;;;;;;;4.05;0.98;;;18.40;99.90;;;;;;5049704;28;20188;-88
2022/09/05 05:23:43;;;;;;;3.67;1.10;;;18.40;99.90;;;;;;5054458;28;20223;-93
2022/09/05 05:26:23;;;;;;;2.17;0.70;;;18.40;99.90;;;;;;5059027;28;20208;-94
2022/09/05 05:29:02;;;;;;;2.35;0.70;;;18.30;99.90;;;;;;5057725;28;20254;-92
2022/09/05 05:31:38;;;;;;;2.90;0.80;;;18.30;99.90;;;;;;5058387;28;20214;-93
2022/09/05 05:34:19;;;;;;;1.65;0.60;;;18.30;99.90;;;;;;5056560;28;20307;-91
2022/09/05 05:37:01;;;;;;;2.17;0.88;;;18.30;99.90;;;;;;5037652;28;20217;-94
2022/09/05 05:39:38;;;;;;;3.58;0.85;;;18.10;99.90;;;;;;5042537;28;20243;-91
2022/09/05 05:42:18;;;;;;;3.13;1.08;;;17.90;99.90;;;;;;5036581;28;20566;-90
2022/09/05 05:44:57;;;;;;;5.68;1.00;;;17.80;99.90;;;;;;5037161;28;20215;-92
2022/09/05 05:47:32;;;;;;;6.15;0.80;;;17.90;99.90;;;;;;5037095;28;20244;-91
2022/09/05 05:50:09;;;;;;;1.52;0.60;;;17.80;99.90;;;;;;5047403;28;20224;-88
2022/09/05 05:53:16;;;;;;;2.65;0.90;;;17.80;99.90;;;;;;5054456;28;20196;-89
2022/09/05 05:56:10;;;;;;;4.60;0.85;;;17.90;99.90;;;;;;5034031;28;20219;-88
2022/09/05 05:59:05;;;;;;;4.28;1.00;;;18.10;99.90;;;;;;5034017;28;20218;-88
2022/09/05 06:02:12;;;;;;;3.75;0.75;;;18.20;99.90;;;;;;5038481;28;20197;-90
2022/09/05 06:05:17;;;;;;;5.55;1.05;;;18.40;99.90;;;;;;5035795;28;20189;-89
2022/09/05 06:07:59;;;;;;;5.05;1.00;;;18.50;99.90;;;;;;5038601;28;20185;-92
2022/09/05 06:10:59;;;;;;;3.90;0.90;;;18.50;99.90;;;;;;5049705;28;20281;-94
2022/09/05 06:14:13;;;;;;;4.63;0.80;;;18.60;99.90;;;;;;5038018;28;20216;-92
2022/09/05 06:17:21;;;;;;;3.42;0.70;;;18.70;99.90;;;;;;5036077;28;20221;-89
2022/09/05 06:20:40;;;;;;;2.35;0.77;;;18.70;99.90;;;;;;5036065;28;20213;-89
2022/09/05 06:23:36;;;;;;;3.55;0.80;;;18.30;99.90;;;;;;5043974;28;20208;-91
2022/09/05 06:26:53;;;;;;;3.50;0.73;;;18.10;99.90;;;;;;5025426;28;20576;-90
2022/09/05 06:32:56;;;;;;;2.50;0.70;;;17.70;99.90;;;;;;5024307;28;20209;-89
2022/09/05 06:35:36;;;;;;;2.33;0.80;;;17.40;99.90;;;;;;5059582;28;20499;-89
2022/09/05 06:38:28;;;;;;;2.72;0.90;;;17.70;99.90;;;;;;5059032;28;20210;-90
2022/09/05 06:41:10;;;;;;;3.17;0.85;;;17.80;99.90;;;;;;5058608;28;20652;-91
2022/09/05 06:44:33;;;;;;;3.72;0.85;;;17.70;99.90;;;;;;5036759;28;20209;-90
2022/09/05 06:47:13;;;;;;;2.28;0.70;;;17.60;99.90;;;;;;4981025;28;20233;-89
2022/09/05 06:50:04;;;;;;;2.50;0.90;;;17.50;99.90;;;;;;5047503;28;20327;-89
2022/09/05 06:53:11;;;;;;;2.88;0.80;;;17.60;99.90;;;;;;5038997;28;20279;-90
2022/09/05 06:56:01;;;;;;;3.25;0.70;;;17.80;99.90;;;;;;5022490;28;20208;-90
2022/09/05 06:59:12;;;;;;;5.60;0.93;;;17.80;99.90;;;;;;5036772;28;20211;-89
2022/09/05 07:01:54;;;;;;;3.13;0.90;;;17.80;99.90;;;;;;5018316;28;20564;-89
2022/09/05 07:04:39;;;;;;;3.42;1.15;;;17.60;99.90;;;;;;5050936;28;20213;-90
2022/09/05 07:07:21;;;;;;;2.03;0.77;;;17.60;99.90;;;;;;5071343;28;20219;-90
2022/09/05 07:09:59;;;;;;;4.20;1.10;;;17.50;99.90;;;;;;5062630;28;20294;-89
2022/09/05 07:12:37;;;;;;;2.10;1.02;;;17.40;99.90;;;;;;5036066;28;20276;-89
2022/09/05 07:15:17;;;;;;;2.13;0.80;;;17.20;99.90;;;;;;5033984;28;20579;-89
2022/09/05 07:17:57;;;;;;;4.57;1.35;;;17.10;99.90;;;;;;5033890;28;20205;-88
2022/09/05 07:20:37;;;;;;;6.40;1.20;;;17.00;99.90;;;;;;5040434;28;20193;-87
2022/09/05 07:23:16;;;;;;;2.78;1.02;;;16.90;99.90;;;;;;5041512;28;20203;-88
2022/09/05 07:25:53;;;;;;;4.38;1.00;;;16.90;99.90;;;;;;5054301;28;20219;-88
2022/09/05 07:28:24;;;;;;;2.55;0.77;;;16.80;99.90;;;;;;5034949;28;20593;-88
2022/09/05 07:30:59;;;;;;;4.40;0.90;;;16.70;99.90;;;;;;5054459;28;20273;-88
2022/09/05 07:33:31;;;;;;;4.35;1.00;;;16.60;99.90;;;;;;5046200;28;20192;-92
2022/09/05 07:36:10;;;;;;;4.45;1.35;;;16.60;99.90;;;;;;5044596;28;20205;-92
2022/09/05 07:38:44;;;;;;;6.40;1.40;;;16.60;99.90;;;;;;5036354;28;20648;-92
2022/09/05 07:41:25;;;;;;;2.72;0.90;;;16.60;99.90;;;;;;5037100;28;20395;-92
2022/09/05 07:44:01;;;;;;;6.13;1.58;;;16.50;99.90;;;;;;5049529;28;20208;-89
2022/09/05 07:46:35;;;;;;;5.25;1.20;;;16.40;99.90;;;;;;5055721;28;20197;-89
2022/09/05 07:49:10;;;;;;;5.15;1.00;;;16.40;99.90;;;;;;5043556;28;20255;-87
2022/09/05 07:51:57;;;;;;;5.40;0.98;;;16.40;99.90;;;;;;5035595;28;20276;-90
2022/09/05 07:54:31;;;;;;;5.68;1.25;;;16.30;99.90;;;;;;5035167;28;20300;-92
2022/09/05 07:57:04;;;;;;;6.63;1.73;;;16.30;99.90;;;;;;5037510;28;20189;-89
2022/09/05 07:59:41;;;;;;;2.47;1.15;;;16.40;99.90;;;;;;5051325;28;20250;-90
2022/09/05 08:02:15;;;;;;;6.07;1.25;;;16.50;99.90;;;;;;5086758;28;20257;-93
2022/09/05 08:04:46;;;;;;;7.03;1.30;;;16.50;99.90;;;;;;5049173;28;20283;-88
2022/09/05 08:07:25;;;;;;;3.42;1.13;;;16.50;99.90;;;;;;5043210;28;20197;-90
2022/09/05 08:10:00;;;;;;;3.22;1.08;;;16.50;99.90;;;;;;5036719;28;20299;-87
2022/09/05 08:12:42;;;;;;;10.98;1.40;;;16.50;99.90;;;;;;5049244;28;20216;-93
2022/09/05 08:15:21;;;;;;;2.92;1.10;;;16.40;99.90;;;;;;5056688;28;20266;-89
2022/09/05 08:18:05;;;;;;;4.07;1.10;;;16.40;99.90;;;;;;5059543;28;20635;-92
2022/09/05 08:20:44;;;;;;;5.20;1.00;;;16.30;99.90;;;;;;5050942;28;20284;-90
2022/09/05 08:23:33;;;;;;;6.13;1.52;;;16.30;99.90;;;;;;5054710;28;20221;-84
2022/09/05 08:26:11;;;;;;;5.10;1.08;;;16.30;99.90;;;;;;5061035;28;20197;-86
2022/09/05 08:28:54;;;;;;;4.70;1.33;;;16.30;99.90;;;;;;5033248;28;20677;-89
2022/09/05 08:31:32;;;;;;;5.78;1.00;;;16.30;99.90;;;;;;5042510;28;20197;-87
2022/09/05 08:34:10;;;;;;;5.13;1.20;;;16.20;99.90;;;;;;5040710;28;20200;-83
2022/09/05 08:36:45;;;;;;;8.02;1.63;;;16.20;99.90;;;;;;5056425;28;20188;-84
2022/09/05 08:39:21;;;;;;;4.20;1.38;;;16.20;99.90;;;;;;5052064;28;20191;-83
2022/09/05 08:42:18;;;;;;;3.92;1.38;;;16.20;99.90;;;;;;5049184;28;20203;-83
2022/09/05 08:45:05;;;;;;;6.25;1.60;;;16.20;99.90;;;;;;5031105;28;20207;-83
2022/09/05 08:47:44;;;;;;;7.45;1.42;;;16.20;99.90;;;;;;5030921;28;20227;-83
2022/09/05 08:50:30;;;;;;;5.07;1.08;;;16.10;99.90;;;;;;5031817;28;20201;-83
2022/09/05 08:53:14;;;;;;;7.47;1.50;;;16.10;99.90;;;;;;5030480;28;20800;-83
2022/09/05 08:55:55;;;;;;;6.60;1.38;;;16.10;99.90;;;;;;5049439;28;20216;-83
2022/09/05 08:59:03;;;;;;;5.45;1.40;;;16.10;99.90;;;;;;5053043;28;20200;-83
2022/09/05 09:01:36;;;;;;;3.17;1.35;;;16.10;99.90;;;;;;5022897;28;20287;-84
2022/09/05 09:04:25;;;;;;;6.85;1.17;;;16.10;99.90;;;;;;5033595;28;20565;-84
2022/09/05 09:07:13;;;;;;;4.90;1.40;;;16.00;99.90;;;;;;5032936;28;20185;-86
2022/09/05 09:09:54;;;;;;;3.63;1.00;;;16.10;99.90;;;;;;5031895;28;20200;-86
2022/09/05 09:13:00;;;;;;;5.13;1.10;;;16.00;99.90;;;;;;5031320;28;20205;-86
2022/09/05 09:15:39;;;;;;;6.50;1.27;;;16.00;99.90;;;;;;5029972;28;20229;-83
2022/09/05 09:18:16;;;;;;;5.25;1.20;;;16.00;99.90;;;;;;5041081;28;20200;-84
2022/09/05 09:20:53;;;;;;;2.83;1.10;;;16.00;99.90;;;;;;5051069;28;20216;-85
2022/09/05 09:23:48;;;;;;;6.63;1.25;;;16.00;99.90;;;;;;5069875;28;20193;-85
2022/09/05 09:26:21;;;;;;;3.50;1.10;;;16.00;99.90;;;;;;5028798;28;20236;-85
2022/09/05 09:29:02;;;;;;;4.72;1.30;;;16.00;99.90;;;;;;5036341;28;20200;-84
2022/09/05 09:32:03;;;;;;;7.32;1.10;;;15.90;99.90;;;;;;5050716;28;20227;-83
2022/09/05 09:34:57;;;;;;;6.88;1.73;;;15.90;99.90;;;;;;5042655;28;20220;-83
2022/09/05 09:37:57;;;;;;;4.88;1.23;;;15.90;99.90;;;;;;5030626;28;20197;-83
2022/09/05 09:41:04;;;;;;;3.83;1.13;;;15.80;99.90;;;;;;5039799;28;20296;-82
2022/09/05 09:43:53;;;;;;;7.03;1.20;;;15.80;99.90;;;;;;5049965;28;20282;-82
2022/09/05 09:46:36;;;;;;;8.25;1.20;;;15.80;99.90;;;;;;5032278;28;20193;-84
2022/09/05 09:49:19;;;;;;;4.35;1.05;;;15.80;99.90;;;;;;5049794;28;20224;-85
2022/09/05 09:52:14;;;;;;;4.53;1.30;;;15.80;99.90;;;;;;5046795;28;20209;-81
2022/09/05 09:55:39;;;;;;;4.85;1.05;;;15.90;99.90;;;;;;5045613;28;20234;-81
2022/09/05 09:58:42;;;;;;;6.35;1.48;;;15.80;99.90;;;;;;5030194;28;20205;-83
2022/09/05 10:01:34;;;;;;;6.85;0.95;;;15.80;99.90;;;;;;5034250;28;20213;-83
2022/09/05 10:04:27;;;;;;;4.65;1.17;;;15.70;99.90;;;;;;5039984;28;20209;-86
2022/09/05 10:07:36;;;;;;;5.50;1.20;;;15.80;99.90;;;;;;5044825;28;20223;-85
2022/09/05 10:10:31;;;;;;;4.20;1.20;;;15.80;99.90;;;;;;5054607;28;20216;-84
2022/09/05 10:13:33;;;;;;;7.97;1.00;;;15.80;99.90;;;;;;5038121;28;20265;-83
2022/09/05 10:16:41;;;;;;;5.93;1.20;;;15.70;99.90;;;;;;5045384;28;20224;-83
2022/09/05 10:19:55;;;;;;;4.00;1.00;;;15.70;99.90;;;;;;5053505;28;20286;-84
2022/09/05 10:22:55;;;;;;;3.60;0.90;;;15.70;99.90;;;;;;5055846;28;20220;-85
2022/09/05 10:26:18;;;;;;;5.00;1.30;;;15.70;99.90;;;;;;5046071;28;20185;-84
2022/09/05 10:29:03;;;;;;;3.08;0.90;;;15.70;99.90;;;;;;5026066;28;20205;-84
2022/09/05 10:31:56;;;;;;;4.70;1.10;;;15.80;99.90;;;;;;5057723;28;20253;-85
2022/09/05 10:34:36;;;;;;;2.42;0.80;;;15.80;99.90;;;;;;5069211;28;20227;-84
2022/09/05 10:37:20;;;;;;;3.70;0.90;;;15.80;99.90;;;;;;5042916;28;20236;-86
2022/09/05 10:39:53;;;;;;;5.25;0.80;;;15.80;99.90;;;;;;5043340;28;20221;-84
2022/09/05 10:42:38;;;;;;;4.25;0.80;;;15.70;99.90;;;;;;5050738;28;20202;-84
2022/09/05 10:48:28;;;;;;;4.57;0.98;;;15.70;99.90;;;;;;5055994;28;20232;-84
2022/09/05 10:51:06;;;;;;;5.22;1.17;;;15.80;99.90;;;;;;5072058;28;20196;-84
2022/09/05 10:53:53;;;;;;;5.93;1.42;;;15.80;99.90;;;;;;5075451;28;20268;-83
2022/09/05 10:56:32;;;;;;;6.72;1.17;;;15.80;99.90;;;;;;5078420;28;20230;-82
2022/09/05 10:59:06;;;;;;;6.28;1.27;;;15.80;99.90;;;;;;5078539;28;20217;-82
2022/09/05 11:01:44;;;;;;;4.40;0.95;;;15.80;99.90;;;;;;5069685;28;20228;-82
2022/09/05 11:04:23;;;;;;;3.08;0.95;;;15.70;99.90;;;;;;5068342;28;20231;-83
2022/09/05 11:06:58;;;;;;;3.83;1.10;;;15.70;99.90;;;;;;5070020;28;20248;-82
2022/09/05 11:10:01;;;;;;;4.93;1.10;;;15.70;99.90;;;;;;5072714;28;20222;-81
2022/09/05 11:13:01;;;;;;;2.38;0.93;;;15.70;99.90;;;;;;5070286;28;20189;-81
2022/09/05 11:15:42;;;;;;;5.43;0.90;;;15.70;99.90;;;;;;5063092;28;20252;-84
2022/09/05 11:18:48;;;;;;;5.72;1.25;;;15.60;99.90;;;;;;5051758;28;20255;-82
2022/09/05 11:21:30;;;;;;;2.25;0.88;;;15.60;99.90;;;;;;5051404;28;20205;-85
2022/09/05 11:24:09;;;;;;;5.18;1.20;;;15.60;99.90;;;;;;5045996;28;20207;-84
2022/09/05 11:27:14;;;;;;;3.55;1.10;;;15.60;99.90;;;;;;5049786;28;20244;-82
2022/09/05 11:29:49;;;;;;;7.43;1.05;;;15.50;99.90;;;;;;5045018;28;20200;-81
2022/09/05 11:33:03;;;;;;;8.35;1.45;;;15.50;99.90;;;;;;5046557;28;20215;-83
2022/09/05 11:35:38;;;;;;;5.55;1.50;;;15.40;99.90;;;;;;5059422;28;20235;-82
2022/09/05 11:38:45;;;;;;;2.80;1.20;;;15.20;99.90;;;;;;5082782;28;20255;-84
2022/09/05 11:41:54;;;;;;;4.47;1.58;;;15.20;99.90;;;;;;5036237;28;20200;-85
2022/09/05 11:44:41;;;;;;;5.78;1.30;;;15.20;99.90;;;;;;5035229;28;20201;-84
2022/09/05 11:47:49;;;;;;;4.93;1.02;;;15.00;99.90;;;;;;5032976;28;20620;-84
2022/09/05 11:50:58;;;;;;;4.53;1.20;;;15.00;99.90;;;;;;5036808;28;20205;-83
2022/09/05 11:54:05;;;;;;;4.68;1.20;;;15.00;99.90;;;;;;5052783;28;20219;-83
2022/09/05 11:57:03;;;;;;;8.95;4.05;;;15.00;99.90;;;;;;5040232;28;20232;-84
2022/09/05 12:00:03;;;;;;;7.18;1.92;;;15.00;99.90;;;;;;5041916;28;20559;-83
2022/09/05 12:03:04;;;;;;;3.22;1.30;;;15.00;99.90;;;;;;5033737;28;20624;-83
2022/09/05 12:06:11;;;;;;;4.13;1.27;;;14.90;99.90;;;;;;5030768;28;20200;-83
2022/09/05 12:08:48;;;;;;;4.28;1.38;;;14.90;99.90;;;;;;5025277;28;20200;-82
2022/09/05 12:11:31;;;;;;;5.00;1.25;;;14.90;99.90;;;;;;5051851;28;20210;-85
2022/09/05 12:14:12;;;;;;;5.22;1.00;;;14.80;99.90;;;;;;5037600;28;20192;-83
2022/09/05 12:16:54;;;;;;;5.28;1.00;;;14.80;99.90;;;;;;5032657;28;20224;-82
2022/09/05 12:19:33;;;;;;;5.32;1.10;;;14.70;99.90;;;;;;5032101;28;20227;-82
2022/09/05 12:22:26;;;;;;;4.60;1.05;;;14.60;99.90;;;;;;5042683;28;20817;-83
2022/09/05 12:25:30;;;;;;;4.00;1.45;;;14.60;99.90;;;;;;5042925;28;20244;-82
2022/09/05 12:28:06;;;;;;;4.30;1.10;;;14.50;99.90;;;;;;5034478;28;20201;-85
2022/09/05 12:30:41;;;;;;;5.68;1.45;;;14.50;99.90;;;;;;5034243;28;20200;-91
2022/09/05 12:33:30;;;;;;;6.88;1.33;;;14.40;99.90;;;;;;5033236;28;20262;-90
2022/09/05 12:36:11;;;;;;;7.35;1.15;;;14.40;99.90;;;;;;5046925;28;20710;-90
2022/09/05 12:38:49;;;;;;;4.40;1.15;;;14.40;99.90;;;;;;5034094;28;20575;-90
2022/09/05 12:41:24;;;;;;;2.90;1.10;;;14.40;99.90;;;;;;5033335;28;20195;-88
2022/09/05 12:44:22;;;;;;;6.00;1.13;;;14.30;99.90;;;;;;5043734;28;20207;-87
2022/09/05 12:47:00;;;;;;;4.13;1.00;;;14.30;99.90;;;;;;5072901;28;20567;-89
2022/09/05 12:49:42;;;;;;;2.25;0.90;;;14.30;99.90;;;;;;5072276;28;20279;-86
2022/09/05 12:52:18;;;;;;;3.17;0.98;;;14.30;99.90;;;;;;5043031;28;20199;-88
2022/09/05 12:54:55;;;;;;;5.50;1.23;;;14.30;99.90;;;;;;5032849;28;20272;-87
2022/09/05 12:57:30;;;;;;;5.00;1.15;;;14.20;99.90;;;;;;5033032;28;20217;-88
2022/09/05 13:00:06;;;;;;;6.10;1.17;;;14.20;99.90;;;;;;5032653;28;20189;-88
2022/09/05 13:02:39;;;;;;;4.70;1.42;;;14.20;99.90;;;;;;5033423;28;20280;-91
2022/09/05 13:05:18;;;;;;;5.85;1.25;;;14.20;99.90;;;;;;5033083;28;20560;-89
2022/09/05 13:07:55;;;;;;;5.30;1.30;;;14.20;99.90;;;;;;5037943;28;20197;-88
2022/09/05 13:10:33;;;;;;;5.20;1.25;;;14.20;99.90;;;;;;5047113;28;20613;-88
2022/09/05 13:13:11;;;;;;;5.35;1.08;;;14.10;99.90;;;;;;5048616;28;20197;-90
2022/09/05 13:15:49;;;;;;;3.90;1.00;;;14.20;99.90;;;;;;5032941;28;20704;-88
2022/09/05 13:18:23;;;;;;;4.28;1.15;;;14.00;99.90;;;;;;5033041;28;20303;-89
2022/09/05 13:21:07;;;;;;;2.90;1.02;;;14.00;99.90;;;;;;5034269;28;20201;-91
2022/09/05 13:23:46;;;;;;;2.83;0.90;;;13.90;99.90;;;;;;5034936;28;20786;-88
2022/09/05 13:26:22;;;;;;;4.25;1.02;;;14.00;99.90;;;;;;5043817;28;20216;-88
2022/09/05 13:28:55;;;;;;;3.38;0.82;;;14.00;99.90;;;;;;5053481;28;20258;-89
2022/09/05 13:31:57;;;;;;;5.22;1.10;;;14.00;99.90;;;;;;5053515;28;20201;-89
2022/09/05 13:34:34;;;;;;;1.88;0.70;;;14.00;99.90;;;;;;5033631;28;20201;-89
2022/09/05 13:37:13;;;;;;;2.55;0.70;;;14.00;99.90;;;;;;5050851;28;20311;-89
2022/09/05 13:39:53;;;;;;;2.55;0.68;;;14.00;99.90;;;;;;5060187;28;20192;-83
2022/09/05 13:42:26;;;;;;;3.95;0.70;;;14.00;99.90;;;;;;5061294;28;20273;-89
2022/09/05 13:44:59;;;;;;;3.10;0.65;;;13.90;99.90;;;;;;5063091;28;20202;-87
2022/09/05 13:47:53;;;;;;;2.03;0.60;;;14.00;99.90;;;;;;5073742;28;20202;-87
2022/09/05 13:50:38;;;;;;;3.80;0.57;;;14.00;99.90;;;;;;5050613;28;20289;-89
2022/09/05 13:53:25;;;;;;;3.25;0.80;;;14.00;99.90;;;;;;5041060;28;20254;-88
2022/09/05 13:55:57;;;;;;;3.85;0.82;;;14.00;99.90;;;;;;5051087;28;20250;-88
2022/09/05 13:58:41;;;;;;;4.60;0.80;;;14.00;99.90;;;;;;5053929;28;20223;-88
2022/09/05 14:01:52;;;;;;;3.97;1.05;;;14.00;99.90;;;;;;5053697;28;20236;-90
2022/09/05 14:04:55;;;;;;;3.83;0.90;;;14.00;99.90;;;;;;5042760;28;20275;-87
2022/09/05 14:07:50;;;;;;;4.35;0.88;;;14.00;99.90;;;;;;5054461;28;20196;-88
2022/09/05 14:10:56;;;;;;;3.30;0.85;;;14.00;99.90;;;;;;5050131;28;20207;-87
2022/09/05 14:13:31;;;;;;;2.03;0.73;;;14.00;99.90;;;;;;5050832;28;20291;-90
2022/09/05 14:16:07;;;;;;;5.05;0.85;;;14.00;99.90;;;;;;5048924;28;20232;-91
2022/09/05 14:21:14;;;;;;;2.78;0.88;;;14.00;99.90;;;;;;5033123;28;20666;-92
2022/09/05 14:21:38;;;;;;;4.13;1.00;;;13.90;99.90;;;;;;5032686;28;20201;-92
2022/09/05 14:24:17;;;;;;;4.35;0.98;;;14.00;99.90;;;;;;5034119;28;20195;-91
2022/09/05 14:26:53;;;;;;;5.68;1.10;;;14.00;99.90;;;;;;5035487;28;20205;-91
2022/09/05 14:29:29;;;;;;;3.95;0.80;;;14.00;99.90;;;;;;5040559;28;20211;-93
2022/09/05 14:32:24;;;;;;;4.43;0.88;;;14.00;99.90;;;;;;5055063;28;20208;-93
2022/09/05 14:35:09;;;;;;;3.58;1.20;;;13.90;99.90;;;;;;5054483;28;20204;-94
2022/09/05 14:37:51;;;;;;;4.70;0.90;;;14.00;99.90;;;;;;5055201;28;20236;-92